Accueil
METAR-TAF:

METAR-TAF

Aéroports :

Aéroport de Caen - Carpiquet

Caen, France

latitude: 49-11N, longitude: 000-27W, altitude: 78 m

Observation

Le bulletin a été fait il y a 23 minutes, à 08:30 UTC
Vent 5 kt de ouest/nord-ouest, variant entre ouest et nord/nord-ouest
Température 12°C
Humidité 82%
Pression 1026 hPa
Visibilité 10 km ou plus
Nuages fragmentés à une hauteur de 1800 ft

METAR: LFRK 140830Z AUTO 30005KT 270V330 9999 BKN018 12/09 Q1026 NOSIG

Heure: 10:53 (08:53 UTC)

Prévision

Le bulletin a été fait il y a 53 minutes, à 08:00 UTC
Prévision valable du 14 à 09 UTC au 14 à 18 UTC
Vent 5 kt de direction variable
Visibilité 10 km ou plus
Nuages épars à une hauteur de 1200 ft
Evoluant progressivement
du 14 à 15 UTC au 14 à 17 UTC
Vent 5 kt de nord

TAF: LFRK 140800Z 1409/1418 VRB05KT 9999 SCT012 BECMG 1415/1417 36005KT

Observations et prévisions météorologiques de plus de 4000 aéroports (messages METAR et TAF).

Les stations disponibles sont représentées par des disques jaunes et rouges sur la carte.

Passer la souris dessus pour voir le nom de la station.

Cliquer dessus pour voir les observations et prévisions météorologiques.

Pour changer de carte: cliquez sur les boutons verts avec une croix noire pour zoomer, sur le bouton vert avec un tiret pour effectuer un zoom arrière, ou sur les flèches vertes pour les cartes adjacentes.


METAR-TAF: